Terminal Aerodrome Forecast
Issued by NWS

Home | Current Version | Previous Version | Text Only | Print | Product List | Glossary On
Versions: 1 2 3 4 5 6 7 8 9 10 11 12 13 14 15
000
FTUS41 KPBZ 171729
TAFLBE
TAF
KLBE 171729Z 1718/1818 VRB03KT P6SM BKN100
     FM172200 18005KT P6SM VCTS BKN035CB
     FM180500 22005KT P6SM -SHRA OVC035
     FM181000 22006KT 5SM BR VCSH BKN020
     FM181500 23011G19KT P6SM BKN040=

USA.gov is the U.S. government's official web portal to all federal, state and local government web resources and services.